Denzil, Canada
Current Conditions -  °F | °C
As of 4:32 PM on Thursday 18 Dec 2014 (Local Time) from CYKY Reporting Station
Moderate Fog Moderate Fog  
Wind Chill:   Ceiling: 300
Heat Index: 14°   Visibility: 0.5mi
Dew Point: 10°   Wind: 5mph
Humidity: 86%   Direction: 330°NNW
Pressure: 29.85"   Gusts: NA
Location:  52.23°N, 109.65°W
Report Text: CYKY 182232Z 33004KT 280V350 1/2SM FZFG VV003 M10/M12 A2985 RMK FG8 SLP154
Loading
Personal Weather Stations






























Interactive Weather Map New forecast layout! Learn more

10-Day Weather Forecast

Advertisements
Track Severe Weather on mobile